sensor_id;sensor_type;location;lat;lon;timestamp;temperature;humidity
18406;DHT22;9329;48.720;9.588;2022-12-07T00:01:47;7.50;99.90
18406;DHT22;9329;48.720;9.588;2022-12-07T00:04:16;6.90;99.90
18406;DHT22;9329;48.720;9.588;2022-12-07T00:06:44;7.30;99.90
18406;DHT22;9329;48.720;9.588;2022-12-07T00:09:13;7.60;99.90
18406;DHT22;9329;48.720;9.588;2022-12-07T00:11:40;7.80;99.90
18406;DHT22;9329;48.720;9.588;2022-12-07T00:14:12;7.70;99.90
18406;DHT22;9329;48.720;9.588;2022-12-07T00:16:39;7.60;99.90
18406;DHT22;9329;48.720;9.588;2022-12-07T00:19:07;8.10;99.90
18406;DHT22;9329;48.720;9.588;2022-12-07T00:21:35;8.30;99.90
18406;DHT22;9329;48.720;9.588;2022-12-07T00:24:04;7.70;99.90
18406;DHT22;9329;48.720;9.588;2022-12-07T00:26:33;7.80;99.90
18406;DHT22;9329;48.720;9.588;2022-12-07T00:29:03;6.70;99.90
18406;DHT22;9329;48.720;9.588;2022-12-07T00:31:34;7.20;99.90
18406;DHT22;9329;48.720;9.588;2022-12-07T00:34:04;7.00;99.90
18406;DHT22;9329;48.720;9.588;2022-12-07T00:36:31;6.60;99.90
18406;DHT22;9329;48.720;9.588;2022-12-07T00:38:59;5.80;99.90
18406;DHT22;9329;48.720;9.588;2022-12-07T00:41:28;6.10;99.90
18406;DHT22;9329;48.720;9.588;2022-12-07T00:43:55;6.20;99.90
18406;DHT22;9329;48.720;9.588;2022-12-07T00:46:23;6.80;99.90
18406;DHT22;9329;48.720;9.588;2022-12-07T00:48:53;6.90;99.90
18406;DHT22;9329;48.720;9.588;2022-12-07T00:51:22;7.30;99.90
18406;DHT22;9329;48.720;9.588;2022-12-07T00:53:50;7.70;99.90
18406;DHT22;9329;48.720;9.588;2022-12-07T00:56:20;7.40;99.90
18406;DHT22;9329;48.720;9.588;2022-12-07T00:58:50;6.80;99.90
18406;DHT22;9329;48.720;9.588;2022-12-07T01:01:18;6.70;99.90
18406;DHT22;9329;48.720;9.588;2022-12-07T01:03:45;7.40;99.90
18406;DHT22;9329;48.720;9.588;2022-12-07T01:06:16;7.00;99.90
18406;DHT22;9329;48.720;9.588;2022-12-07T01:08:43;7.60;99.90
18406;DHT22;9329;48.720;9.588;2022-12-07T01:11:13;8.00;99.90
18406;DHT22;9329;48.720;9.588;2022-12-07T01:13:41;8.00;99.90
18406;DHT22;9329;48.720;9.588;2022-12-07T01:16:10;7.90;99.90
18406;DHT22;9329;48.720;9.588;2022-12-07T01:18:38;7.60;99.90
18406;DHT22;9329;48.720;9.588;2022-12-07T01:21:08;8.20;99.90
18406;DHT22;9329;48.720;9.588;2022-12-07T01:23:37;8.10;99.90
18406;DHT22;9329;48.720;9.588;2022-12-07T01:26:09;7.90;99.90
18406;DHT22;9329;48.720;9.588;2022-12-07T01:28:37;8.40;99.90
18406;DHT22;9329;48.720;9.588;2022-12-07T01:31:06;8.30;99.90
18406;DHT22;9329;48.720;9.588;2022-12-07T01:33:34;7.10;99.90
18406;DHT22;9329;48.720;9.588;2022-12-07T01:36:03;7.10;99.90
18406;DHT22;9329;48.720;9.588;2022-12-07T01:38:30;6.80;99.90
18406;DHT22;9329;48.720;9.588;2022-12-07T01:41:00;7.30;99.90
18406;DHT22;9329;48.720;9.588;2022-12-07T01:43:29;7.70;99.90
18406;DHT22;9329;48.720;9.588;2022-12-07T01:45:57;7.20;99.90
18406;DHT22;9329;48.720;9.588;2022-12-07T01:48:26;7.20;99.90
18406;DHT22;9329;48.720;9.588;2022-12-07T01:50:56;7.50;99.90
18406;DHT22;9329;48.720;9.588;2022-12-07T01:53:28;7.80;99.90
18406;DHT22;9329;48.720;9.588;2022-12-07T01:55:59;7.70;99.90
18406;DHT22;9329;48.720;9.588;2022-12-07T01:58:26;7.00;99.90
18406;DHT22;9329;48.720;9.588;2022-12-07T02:00:53;7.50;99.90
18406;DHT22;9329;48.720;9.588;2022-12-07T02:03:24;7.70;99.90
18406;DHT22;9329;48.720;9.588;2022-12-07T02:05:53;7.20;99.90
18406;DHT22;9329;48.720;9.588;2022-12-07T02:08:21;7.20;99.90
18406;DHT22;9329;48.720;9.588;2022-12-07T02:10:48;7.50;99.90
18406;DHT22;9329;48.720;9.588;2022-12-07T02:13:19;7.60;99.90
18406;DHT22;9329;48.720;9.588;2022-12-07T02:16:02;7.60;99.90
18406;DHT22;9329;48.720;9.588;2022-12-07T02:18:43;7.40;99.90
18406;DHT22;9329;48.720;9.588;2022-12-07T02:21:13;7.60;99.90
18406;DHT22;9329;48.720;9.588;2022-12-07T02:24:03;7.90;99.90
18406;DHT22;9329;48.720;9.588;2022-12-07T02:29:53;7.30;99.90
18406;DHT22;9329;48.720;9.588;2022-12-07T02:32:27;6.90;99.90
18406;DHT22;9329;48.720;9.588;2022-12-07T02:35:00;7.10;99.90
18406;DHT22;9329;48.720;9.588;2022-12-07T02:37:35;7.10;99.90
18406;DHT22;9329;48.720;9.588;2022-12-07T02:40:08;6.90;99.90
18406;DHT22;9329;48.720;9.588;2022-12-07T02:42:38;7.30;99.90
18406;DHT22;9329;48.720;9.588;2022-12-07T02:45:10;7.50;99.90
18406;DHT22;9329;48.720;9.588;2022-12-07T02:47:39;7.90;99.90
18406;DHT22;9329;48.720;9.588;2022-12-07T02:50:08;7.00;99.90
18406;DHT22;9329;48.720;9.588;2022-12-07T02:52:35;7.00;99.90
18406;DHT22;9329;48.720;9.588;2022-12-07T02:55:04;7.30;99.90
18406;DHT22;9329;48.720;9.588;2022-12-07T02:57:42;7.60;99.90
18406;DHT22;9329;48.720;9.588;2022-12-07T03:00:16;7.70;99.90
18406;DHT22;9329;48.720;9.588;2022-12-07T03:02:53;7.40;99.90
18406;DHT22;9329;48.720;9.588;2022-12-07T03:08:25;7.40;99.90
18406;DHT22;9329;48.720;9.588;2022-12-07T03:10:57;7.40;99.90
18406;DHT22;9329;48.720;9.588;2022-12-07T03:13:29;7.50;99.90
18406;DHT22;9329;48.720;9.588;2022-12-07T03:16:02;7.50;99.90
18406;DHT22;9329;48.720;9.588;2022-12-07T03:18:35;7.60;99.90
18406;DHT22;9329;48.720;9.588;2022-12-07T03:21:08;7.60;99.90
18406;DHT22;9329;48.720;9.588;2022-12-07T03:23:38;6.90;99.90
18406;DHT22;9329;48.720;9.588;2022-12-07T03:26:08;7.60;99.90
18406;DHT22;9329;48.720;9.588;2022-12-07T03:28:41;7.20;99.90
18406;DHT22;9329;48.720;9.588;2022-12-07T03:31:13;7.60;99.90
18406;DHT22;9329;48.720;9.588;2022-12-07T03:33:47;7.60;99.90
18406;DHT22;9329;48.720;9.588;2022-12-07T03:36:21;7.50;99.90
18406;DHT22;9329;48.720;9.588;2022-12-07T03:38:53;7.60;99.90
18406;DHT22;9329;48.720;9.588;2022-12-07T03:41:24;7.70;99.90
18406;DHT22;9329;48.720;9.588;2022-12-07T03:43:54;7.40;99.90
18406;DHT22;9329;48.720;9.588;2022-12-07T03:46:30;7.40;99.90
18406;DHT22;9329;48.720;9.588;2022-12-07T03:49:05;7.40;99.90
18406;DHT22;9329;48.720;9.588;2022-12-07T03:51:38;7.50;99.90
18406;DHT22;9329;48.720;9.588;2022-12-07T03:54:13;7.60;99.90
18406;DHT22;9329;48.720;9.588;2022-12-07T03:56:43;7.30;99.90
18406;DHT22;9329;48.720;9.588;2022-12-07T03:59:12;6.20;99.90
18406;DHT22;9329;48.720;9.588;2022-12-07T04:01:43;5.90;99.90
18406;DHT22;9329;48.720;9.588;2022-12-07T04:04:10;5.80;99.90
18406;DHT22;9329;48.720;9.588;2022-12-07T04:06:37;6.30;99.90
18406;DHT22;9329;48.720;9.588;2022-12-07T04:09:04;6.80;99.90
18406;DHT22;9329;48.720;9.588;2022-12-07T04:11:31;7.10;99.90
18406;DHT22;9329;48.720;9.588;2022-12-07T04:13:58;7.20;99.90
18406;DHT22;9329;48.720;9.588;2022-12-07T04:16:44;7.10;99.90
18406;DHT22;9329;48.720;9.588;2022-12-07T04:19:11;7.10;99.90
18406;DHT22;9329;48.720;9.588;2022-12-07T04:21:38;7.00;99.90
18406;DHT22;9329;48.720;9.588;2022-12-07T04:24:06;7.10;99.90
18406;DHT22;9329;48.720;9.588;2022-12-07T04:26:33;7.20;99.90
18406;DHT22;9329;48.720;9.588;2022-12-07T04:29:00;7.20;99.90
18406;DHT22;9329;48.720;9.588;2022-12-07T04:31:27;7.10;99.90
18406;DHT22;9329;48.720;9.588;2022-12-07T04:33:55;7.40;99.90
18406;DHT22;9329;48.720;9.588;2022-12-07T04:36:22;7.20;99.90
18406;DHT22;9329;48.720;9.588;2022-12-07T04:38:49;7.20;99.90
18406;DHT22;9329;48.720;9.588;2022-12-07T04:41:16;7.10;99.90
18406;DHT22;9329;48.720;9.588;2022-12-07T04:43:43;6.40;99.90
18406;DHT22;9329;48.720;9.588;2022-12-07T04:46:10;6.70;99.90
18406;DHT22;9329;48.720;9.588;2022-12-07T04:48:37;6.60;99.90
18406;DHT22;9329;48.720;9.588;2022-12-07T04:51:05;6.50;99.90
18406;DHT22;9329;48.720;9.588;2022-12-07T04:53:32;6.90;99.90
18406;DHT22;9329;48.720;9.588;2022-12-07T04:55:59;6.70;99.90
18406;DHT22;9329;48.720;9.588;2022-12-07T04:58:27;6.70;99.90
18406;DHT22;9329;48.720;9.588;2022-12-07T05:00:54;6.90;99.90
18406;DHT22;9329;48.720;9.588;2022-12-07T05:03:22;5.40;99.90
18406;DHT22;9329;48.720;9.588;2022-12-07T05:05:48;4.40;99.90
18406;DHT22;9329;48.720;9.588;2022-12-07T05:08:17;4.10;99.90
18406;DHT22;9329;48.720;9.588;2022-12-07T05:10:44;3.50;99.90
18406;DHT22;9329;48.720;9.588;2022-12-07T05:13:11;3.60;99.90
18406;DHT22;9329;48.720;9.588;2022-12-07T05:15:38;4.10;99.90
18406;DHT22;9329;48.720;9.588;2022-12-07T05:18:05;4.40;99.90
18406;DHT22;9329;48.720;9.588;2022-12-07T05:20:32;5.00;99.90
18406;DHT22;9329;48.720;9.588;2022-12-07T05:22:59;5.20;99.90
18406;DHT22;9329;48.720;9.588;2022-12-07T05:25:27;4.90;99.90
18406;DHT22;9329;48.720;9.588;2022-12-07T05:27:55;5.10;99.90
18406;DHT22;9329;48.720;9.588;2022-12-07T05:30:23;5.10;99.90
18406;DHT22;9329;48.720;9.588;2022-12-07T05:32:51;4.70;99.90
18406;DHT22;9329;48.720;9.588;2022-12-07T05:35:18;4.30;99.90
18406;DHT22;9329;48.720;9.588;2022-12-07T05:37:45;4.20;99.90
18406;DHT22;9329;48.720;9.588;2022-12-07T05:40:13;3.80;99.90
18406;DHT22;9329;48.720;9.588;2022-12-07T05:42:42;4.30;99.90
18406;DHT22;9329;48.720;9.588;2022-12-07T05:45:09;4.50;99.90
18406;DHT22;9329;48.720;9.588;2022-12-07T05:47:37;5.00;99.90
18406;DHT22;9329;48.720;9.588;2022-12-07T05:50:06;5.20;99.90
18406;DHT22;9329;48.720;9.588;2022-12-07T05:52:33;5.40;99.90
18406;DHT22;9329;48.720;9.588;2022-12-07T05:55:00;4.90;99.90
18406;DHT22;9329;48.720;9.588;2022-12-07T05:57:27;5.40;99.90
18406;DHT22;9329;48.720;9.588;2022-12-07T05:59:56;5.50;99.90
18406;DHT22;9329;48.720;9.588;2022-12-07T06:02:22;5.80;99.90
18406;DHT22;9329;48.720;9.588;2022-12-07T06:04:49;5.40;99.90
18406;DHT22;9329;48.720;9.588;2022-12-07T06:07:16;5.20;99.90
18406;DHT22;9329;48.720;9.588;2022-12-07T06:09:43;5.40;99.90
18406;DHT22;9329;48.720;9.588;2022-12-07T06:12:11;5.50;99.90
18406;DHT22;9329;48.720;9.588;2022-12-07T06:14:57;5.70;99.90
18406;DHT22;9329;48.720;9.588;2022-12-07T06:17:24;6.00;99.90
18406;DHT22;9329;48.720;9.588;2022-12-07T06:19:51;5.90;99.90
18406;DHT22;9329;48.720;9.588;2022-12-07T06:22:18;5.70;99.90
18406;DHT22;9329;48.720;9.588;2022-12-07T06:24:45;5.80;99.90
18406;DHT22;9329;48.720;9.588;2022-12-07T06:27:13;5.80;99.90
18406;DHT22;9329;48.720;9.588;2022-12-07T06:29:40;5.60;99.90
18406;DHT22;9329;48.720;9.588;2022-12-07T06:32:08;5.70;99.90
18406;DHT22;9329;48.720;9.588;2022-12-07T06:34:35;5.70;99.90
18406;DHT22;9329;48.720;9.588;2022-12-07T06:37:02;5.90;99.90
18406;DHT22;9329;48.720;9.588;2022-12-07T06:39:30;5.90;99.90
18406;DHT22;9329;48.720;9.588;2022-12-07T06:41:57;5.90;99.90
18406;DHT22;9329;48.720;9.588;2022-12-07T06:44:24;5.90;99.90
18406;DHT22;9329;48.720;9.588;2022-12-07T06:46:52;6.00;99.90
18406;DHT22;9329;48.720;9.588;2022-12-07T06:49:20;6.20;99.90
18406;DHT22;9329;48.720;9.588;2022-12-07T06:51:47;5.90;99.90
18406;DHT22;9329;48.720;9.588;2022-12-07T06:54:15;5.70;99.90
18406;DHT22;9329;48.720;9.588;2022-12-07T06:56:42;6.10;99.90
18406;DHT22;9329;48.720;9.588;2022-12-07T06:59:10;6.10;99.90
18406;DHT22;9329;48.720;9.588;2022-12-07T07:01:37;6.10;99.90
18406;DHT22;9329;48.720;9.588;2022-12-07T07:04:06;6.00;99.90
18406;DHT22;9329;48.720;9.588;2022-12-07T07:06:40;6.20;99.90
18406;DHT22;9329;48.720;9.588;2022-12-07T07:09:07;6.00;99.90
18406;DHT22;9329;48.720;9.588;2022-12-07T07:11:35;6.40;99.90
18406;DHT22;9329;48.720;9.588;2022-12-07T07:14:02;6.40;99.90
18406;DHT22;9329;48.720;9.588;2022-12-07T07:16:29;6.70;99.90
18406;DHT22;9329;48.720;9.588;2022-12-07T07:18:57;6.40;99.90
18406;DHT22;9329;48.720;9.588;2022-12-07T07:21:24;5.00;99.90
18406;DHT22;9329;48.720;9.588;2022-12-07T07:23:52;5.00;99.90
18406;DHT22;9329;48.720;9.588;2022-12-07T07:26:19;5.30;99.90
18406;DHT22;9329;48.720;9.588;2022-12-07T07:28:46;6.00;99.90
18406;DHT22;9329;48.720;9.588;2022-12-07T07:31:13;6.30;99.90
18406;DHT22;9329;48.720;9.588;2022-12-07T07:33:40;6.50;99.90
18406;DHT22;9329;48.720;9.588;2022-12-07T07:36:07;6.60;99.90
18406;DHT22;9329;48.720;9.588;2022-12-07T07:38:34;6.50;99.90
18406;DHT22;9329;48.720;9.588;2022-12-07T07:41:03;6.30;99.90
18406;DHT22;9329;48.720;9.588;2022-12-07T07:43:30;5.90;99.90
18406;DHT22;9329;48.720;9.588;2022-12-07T07:45:57;6.10;99.90
18406;DHT22;9329;48.720;9.588;2022-12-07T07:48:24;5.60;99.90
18406;DHT22;9329;48.720;9.588;2022-12-07T07:50:51;5.10;99.90
18406;DHT22;9329;48.720;9.588;2022-12-07T07:53:18;5.40;99.90
18406;DHT22;9329;48.720;9.588;2022-12-07T07:55:51;5.50;99.90
18406;DHT22;9329;48.720;9.588;2022-12-07T07:58:20;5.70;99.90
18406;DHT22;9329;48.720;9.588;2022-12-07T08:00:47;5.50;99.90
18406;DHT22;9329;48.720;9.588;2022-12-07T08:03:14;5.80;99.90
18406;DHT22;9329;48.720;9.588;2022-12-07T08:05:41;5.90;99.90
18406;DHT22;9329;48.720;9.588;2022-12-07T08:08:08;6.30;99.90
18406;DHT22;9329;48.720;9.588;2022-12-07T08:10:35;5.50;99.90
18406;DHT22;9329;48.720;9.588;2022-12-07T08:13:03;5.10;99.90
18406;DHT22;9329;48.720;9.588;2022-12-07T08:15:42;5.10;99.90
18406;DHT22;9329;48.720;9.588;2022-12-07T08:18:09;5.00;99.90
18406;DHT22;9329;48.720;9.588;2022-12-07T08:20:39;5.20;99.90
18406;DHT22;9329;48.720;9.588;2022-12-07T08:23:06;5.00;99.90
18406;DHT22;9329;48.720;9.588;2022-12-07T08:25:34;5.70;99.90
18406;DHT22;9329;48.720;9.588;2022-12-07T08:28:01;6.10;99.90
18406;DHT22;9329;48.720;9.588;2022-12-07T08:30:29;6.10;99.90
18406;DHT22;9329;48.720;9.588;2022-12-07T08:32:58;6.40;99.90
18406;DHT22;9329;48.720;9.588;2022-12-07T08:35:25;6.90;99.90
18406;DHT22;9329;48.720;9.588;2022-12-07T08:37:52;6.70;99.90
18406;DHT22;9329;48.720;9.588;2022-12-07T08:40:19;6.40;99.90
18406;DHT22;9329;48.720;9.588;2022-12-07T08:42:49;6.70;99.90
18406;DHT22;9329;48.720;9.588;2022-12-07T08:45:17;5.70;99.90
18406;DHT22;9329;48.720;9.588;2022-12-07T08:47:47;5.40;99.90
18406;DHT22;9329;48.720;9.588;2022-12-07T08:50:17;5.40;99.90
18406;DHT22;9329;48.720;9.588;2022-12-07T08:52:48;5.60;99.90
18406;DHT22;9329;48.720;9.588;2022-12-07T08:55:17;6.00;99.90
18406;DHT22;9329;48.720;9.588;2022-12-07T08:57:44;6.30;99.90
18406;DHT22;9329;48.720;9.588;2022-12-07T09:00:13;6.70;99.90
18406;DHT22;9329;48.720;9.588;2022-12-07T09:02:40;6.80;99.90
18406;DHT22;9329;48.720;9.588;2022-12-07T09:05:08;6.60;99.90
18406;DHT22;9329;48.720;9.588;2022-12-07T09:07:36;7.00;99.90
18406;DHT22;9329;48.720;9.588;2022-12-07T09:10:06;7.70;99.90
18406;DHT22;9329;48.720;9.588;2022-12-07T09:12:33;7.30;99.90
18406;DHT22;9329;48.720;9.588;2022-12-07T09:15:01;7.40;99.90
18406;DHT22;9329;48.720;9.588;2022-12-07T09:17:32;7.90;99.90
18406;DHT22;9329;48.720;9.588;2022-12-07T09:19:59;7.50;99.90
18406;DHT22;9329;48.720;9.588;2022-12-07T09:22:29;7.30;99.90
18406;DHT22;9329;48.720;9.588;2022-12-07T09:24:57;6.60;99.90
18406;DHT22;9329;48.720;9.588;2022-12-07T09:27:25;6.80;99.90
18406;DHT22;9329;48.720;9.588;2022-12-07T09:29:52;6.80;99.90
18406;DHT22;9329;48.720;9.588;2022-12-07T09:32:19;7.20;99.90
18406;DHT22;9329;48.720;9.588;2022-12-07T09:34:46;7.50;99.90
18406;DHT22;9329;48.720;9.588;2022-12-07T09:37:13;7.10;99.90
18406;DHT22;9329;48.720;9.588;2022-12-07T09:39:40;7.30;99.90
18406;DHT22;9329;48.720;9.588;2022-12-07T09:42:24;7.50;99.90
18406;DHT22;9329;48.720;9.588;2022-12-07T09:44:53;7.60;99.90
18406;DHT22;9329;48.720;9.588;2022-12-07T09:47:20;7.60;99.90
18406;DHT22;9329;48.720;9.588;2022-12-07T09:49:47;7.50;99.90
18406;DHT22;9329;48.720;9.588;2022-12-07T09:52:20;7.30;99.90
18406;DHT22;9329;48.720;9.588;2022-12-07T09:54:52;6.90;99.90
18406;DHT22;9329;48.720;9.588;2022-12-07T09:57:27;7.30;99.90
18406;DHT22;9329;48.720;9.588;2022-12-07T09:59:56;7.30;99.90
18406;DHT22;9329;48.720;9.588;2022-12-07T10:02:35;7.50;99.90
18406;DHT22;9329;48.720;9.588;2022-12-07T10:05:04;7.60;99.90
18406;DHT22;9329;48.720;9.588;2022-12-07T10:07:31;7.70;99.90
18406;DHT22;9329;48.720;9.588;2022-12-07T10:09:58;7.90;99.90
18406;DHT22;9329;48.720;9.588;2022-12-07T10:12:27;7.90;99.90
18406;DHT22;9329;48.720;9.588;2022-12-07T10:14:55;7.70;99.90
18406;DHT22;9329;48.720;9.588;2022-12-07T10:17:34;7.70;99.90
18406;DHT22;9329;48.720;9.588;2022-12-07T10:20:20;8.00;99.90
18406;DHT22;9329;48.720;9.588;2022-12-07T10:23:04;7.90;99.90
18406;DHT22;9329;48.720;9.588;2022-12-07T10:25:33;7.80;99.90
18406;DHT22;9329;48.720;9.588;2022-12-07T10:28:12;7.90;99.90
18406;DHT22;9329;48.720;9.588;2022-12-07T10:30:52;7.90;99.90
18406;DHT22;9329;48.720;9.588;2022-12-07T10:33:34;8.00;99.90
18406;DHT22;9329;48.720;9.588;2022-12-07T10:36:16;8.50;99.90
18406;DHT22;9329;48.720;9.588;2022-12-07T10:38:45;7.90;99.90
18406;DHT22;9329;48.720;9.588;2022-12-07T10:41:13;8.20;99.90
18406;DHT22;9329;48.720;9.588;2022-12-07T10:43:52;8.30;99.90
18406;DHT22;9329;48.720;9.588;2022-12-07T10:52:59;8.80;99.90
18406;DHT22;9329;48.720;9.588;2022-12-07T10:55:44;8.80;99.90
18406;DHT22;9329;48.720;9.588;2022-12-07T10:58:27;9.00;99.90
18406;DHT22;9329;48.720;9.588;2022-12-07T11:01:06;8.80;99.90
18406;DHT22;9329;48.720;9.588;2022-12-07T11:06:54;9.00;99.90
18406;DHT22;9329;48.720;9.588;2022-12-07T11:12:31;9.20;99.90
18406;DHT22;9329;48.720;9.588;2022-12-07T11:15:04;8.70;99.90
18406;DHT22;9329;48.720;9.588;2022-12-07T11:17:42;8.50;99.90
18406;DHT22;9329;48.720;9.588;2022-12-07T11:20:22;8.50;99.90
18406;DHT22;9329;48.720;9.588;2022-12-07T11:23:02;8.40;99.90
18406;DHT22;9329;48.720;9.588;2022-12-07T11:25:34;8.40;99.90
18406;DHT22;9329;48.720;9.588;2022-12-07T11:28:18;8.40;99.90
18406;DHT22;9329;48.720;9.588;2022-12-07T11:30:54;8.30;99.90
18406;DHT22;9329;48.720;9.588;2022-12-07T11:33:31;8.00;99.90
18406;DHT22;9329;48.720;9.588;2022-12-07T11:36:06;8.20;99.90
18406;DHT22;9329;48.720;9.588;2022-12-07T11:38:43;8.00;99.90
18406;DHT22;9329;48.720;9.588;2022-12-07T11:41:13;8.50;99.90
18406;DHT22;9329;48.720;9.588;2022-12-07T11:43:54;8.50;99.90
18406;DHT22;9329;48.720;9.588;2022-12-07T11:46:25;8.40;99.90
18406;DHT22;9329;48.720;9.588;2022-12-07T11:49:01;8.20;99.90
18406;DHT22;9329;48.720;9.588;2022-12-07T11:51:32;8.40;99.90
18406;DHT22;9329;48.720;9.588;2022-12-07T11:54:03;9.00;99.90
18406;DHT22;9329;48.720;9.588;2022-12-07T11:56:35;9.10;99.90
18406;DHT22;9329;48.720;9.588;2022-12-07T11:59:09;9.10;99.90
18406;DHT22;9329;48.720;9.588;2022-12-07T12:01:52;9.00;99.90
18406;DHT22;9329;48.720;9.588;2022-12-07T12:04:33;9.20;99.90
18406;DHT22;9329;48.720;9.588;2022-12-07T12:07:01;9.10;99.90
18406;DHT22;9329;48.720;9.588;2022-12-07T12:09:32;8.70;99.90
18406;DHT22;9329;48.720;9.588;2022-12-07T12:15:18;8.60;99.90
18406;DHT22;9329;48.720;9.588;2022-12-07T12:18:14;8.60;99.90
18406;DHT22;9329;48.720;9.588;2022-12-07T12:20:50;8.40;99.90
18406;DHT22;9329;48.720;9.588;2022-12-07T12:23:21;8.70;99.90
18406;DHT22;9329;48.720;9.588;2022-12-07T12:25:51;8.70;99.90
18406;DHT22;9329;48.720;9.588;2022-12-07T12:28:23;9.10;99.90
18406;DHT22;9329;48.720;9.588;2022-12-07T12:31:14;8.60;99.90
18406;DHT22;9329;48.720;9.588;2022-12-07T12:33:44;9.10;99.90
18406;DHT22;9329;48.720;9.588;2022-12-07T12:36:24;9.60;99.90
18406;DHT22;9329;48.720;9.588;2022-12-07T12:39:08;9.30;99.90
18406;DHT22;9329;48.720;9.588;2022-12-07T12:41:52;8.90;99.90
18406;DHT22;9329;48.720;9.588;2022-12-07T12:48:07;9.10;99.90
18406;DHT22;9329;48.720;9.588;2022-12-07T12:51:36;8.70;99.90
18406;DHT22;9329;48.720;9.588;2022-12-07T12:54:04;8.40;99.90
18406;DHT22;9329;48.720;9.588;2022-12-07T12:56:43;8.10;99.90
18406;DHT22;9329;48.720;9.588;2022-12-07T12:59:26;8.50;99.90
18406;DHT22;9329;48.720;9.588;2022-12-07T13:02:07;8.50;99.90
18406;DHT22;9329;48.720;9.588;2022-12-07T13:04:48;8.40;99.90
18406;DHT22;9329;48.720;9.588;2022-12-07T13:10:43;8.30;99.90
18406;DHT22;9329;48.720;9.588;2022-12-07T13:13:32;7.60;99.90
18406;DHT22;9329;48.720;9.588;2022-12-07T13:22:40;8.40;99.90
18406;DHT22;9329;48.720;9.588;2022-12-07T13:25:11;7.80;99.90
18406;DHT22;9329;48.720;9.588;2022-12-07T13:27:41;8.30;99.90
18406;DHT22;9329;48.720;9.588;2022-12-07T13:30:16;8.00;99.90
18406;DHT22;9329;48.720;9.588;2022-12-07T13:32:52;7.90;99.90
18406;DHT22;9329;48.720;9.588;2022-12-07T13:35:34;7.70;99.90
18406;DHT22;9329;48.720;9.588;2022-12-07T13:38:05;7.90;99.90
18406;DHT22;9329;48.720;9.588;2022-12-07T13:40:33;8.50;99.90
18406;DHT22;9329;48.720;9.588;2022-12-07T13:43:04;8.00;99.90
18406;DHT22;9329;48.720;9.588;2022-12-07T13:45:33;8.30;99.90
18406;DHT22;9329;48.720;9.588;2022-12-07T13:48:21;8.70;99.90
18406;DHT22;9329;48.720;9.588;2022-12-07T13:50:53;9.30;99.90
18406;DHT22;9329;48.720;9.588;2022-12-07T13:53:22;9.40;99.90
18406;DHT22;9329;48.720;9.588;2022-12-07T13:55:50;8.80;99.90
18406;DHT22;9329;48.720;9.588;2022-12-07T13:58:18;8.40;99.90
18406;DHT22;9329;48.720;9.588;2022-12-07T14:00:45;8.80;99.90
18406;DHT22;9329;48.720;9.588;2022-12-07T14:03:30;8.70;99.90
18406;DHT22;9329;48.720;9.588;2022-12-07T14:06:16;8.70;99.90
18406;DHT22;9329;48.720;9.588;2022-12-07T14:08:44;8.90;99.90
18406;DHT22;9329;48.720;9.588;2022-12-07T14:11:16;9.00;99.90
18406;DHT22;9329;48.720;9.588;2022-12-07T14:13:59;8.90;99.90
18406;DHT22;9329;48.720;9.588;2022-12-07T14:16:28;8.90;99.90
18406;DHT22;9329;48.720;9.588;2022-12-07T14:18:58;8.70;99.90
18406;DHT22;9329;48.720;9.588;2022-12-07T14:21:27;9.10;99.90
18406;DHT22;9329;48.720;9.588;2022-12-07T14:24:10;8.60;99.90
18406;DHT22;9329;48.720;9.588;2022-12-07T14:26:37;8.90;99.90
18406;DHT22;9329;48.720;9.588;2022-12-07T14:29:37;8.70;99.90
18406;DHT22;9329;48.720;9.588;2022-12-07T14:32:22;9.10;99.90
18406;DHT22;9329;48.720;9.588;2022-12-07T14:34:55;9.00;99.90
18406;DHT22;9329;48.720;9.588;2022-12-07T14:37:22;8.90;99.90
18406;DHT22;9329;48.720;9.588;2022-12-07T14:39:50;9.00;99.90
18406;DHT22;9329;48.720;9.588;2022-12-07T14:42:17;9.00;99.90
18406;DHT22;9329;48.720;9.588;2022-12-07T14:44:45;9.00;99.90
18406;DHT22;9329;48.720;9.588;2022-12-07T14:47:12;8.60;99.90
18406;DHT22;9329;48.720;9.588;2022-12-07T14:49:40;8.10;99.90
18406;DHT22;9329;48.720;9.588;2022-12-07T14:52:12;7.90;99.90
18406;DHT22;9329;48.720;9.588;2022-12-07T14:54:41;8.40;99.90
18406;DHT22;9329;48.720;9.588;2022-12-07T14:57:10;8.20;99.90
18406;DHT22;9329;48.720;9.588;2022-12-07T14:59:37;7.70;99.90
18406;DHT22;9329;48.720;9.588;2022-12-07T15:02:06;7.60;99.90
18406;DHT22;9329;48.720;9.588;2022-12-07T15:04:33;8.00;99.90
18406;DHT22;9329;48.720;9.588;2022-12-07T15:07:02;8.00;99.90
18406;DHT22;9329;48.720;9.588;2022-12-07T15:09:29;8.50;99.90
18406;DHT22;9329;48.720;9.588;2022-12-07T15:11:56;8.60;99.90
18406;DHT22;9329;48.720;9.588;2022-12-07T15:14:23;8.40;99.90
18406;DHT22;9329;48.720;9.588;2022-12-07T15:16:50;8.20;99.90
18406;DHT22;9329;48.720;9.588;2022-12-07T15:19:20;8.30;99.90
18406;DHT22;9329;48.720;9.588;2022-12-07T15:21:51;8.50;99.90
18406;DHT22;9329;48.720;9.588;2022-12-07T15:24:19;8.70;99.90
18406;DHT22;9329;48.720;9.588;2022-12-07T15:26:47;8.60;99.90
18406;DHT22;9329;48.720;9.588;2022-12-07T15:29:14;8.80;99.90
18406;DHT22;9329;48.720;9.588;2022-12-07T15:31:42;7.90;99.90
18406;DHT22;9329;48.720;9.588;2022-12-07T15:34:09;7.30;99.90
18406;DHT22;9329;48.720;9.588;2022-12-07T15:36:38;7.80;99.90
18406;DHT22;9329;48.720;9.588;2022-12-07T15:39:05;7.90;99.90
18406;DHT22;9329;48.720;9.588;2022-12-07T15:41:32;7.90;99.90
18406;DHT22;9329;48.720;9.588;2022-12-07T15:43:59;8.30;99.90
18406;DHT22;9329;48.720;9.588;2022-12-07T15:46:43;8.40;99.90
18406;DHT22;9329;48.720;9.588;2022-12-07T15:49:13;8.10;99.90
18406;DHT22;9329;48.720;9.588;2022-12-07T15:51:42;7.90;99.90
18406;DHT22;9329;48.720;9.588;2022-12-07T15:54:13;8.00;99.90
18406;DHT22;9329;48.720;9.588;2022-12-07T15:56:40;8.20;99.90
18406;DHT22;9329;48.720;9.588;2022-12-07T15:59:07;8.10;99.90
18406;DHT22;9329;48.720;9.588;2022-12-07T16:01:34;8.20;99.90
18406;DHT22;9329;48.720;9.588;2022-12-07T16:04:01;8.30;99.90
18406;DHT22;9329;48.720;9.588;2022-12-07T16:06:28;8.10;99.90
18406;DHT22;9329;48.720;9.588;2022-12-07T16:08:56;7.90;99.90
18406;DHT22;9329;48.720;9.588;2022-12-07T16:11:24;7.80;99.90
18406;DHT22;9329;48.720;9.588;2022-12-07T16:13:51;7.90;99.90
18406;DHT22;9329;48.720;9.588;2022-12-07T16:16:19;8.20;99.90
18406;DHT22;9329;48.720;9.588;2022-12-07T16:18:48;8.20;99.90
18406;DHT22;9329;48.720;9.588;2022-12-07T16:21:16;8.00;99.90
18406;DHT22;9329;48.720;9.588;2022-12-07T16:23:44;7.80;99.90
18406;DHT22;9329;48.720;9.588;2022-12-07T16:26:15;8.00;99.90
18406;DHT22;9329;48.720;9.588;2022-12-07T16:28:43;8.00;99.90
18406;DHT22;9329;48.720;9.588;2022-12-07T16:31:12;8.10;99.90
18406;DHT22;9329;48.720;9.588;2022-12-07T16:33:40;8.20;99.90
18406;DHT22;9329;48.720;9.588;2022-12-07T16:36:08;7.70;99.90
18406;DHT22;9329;48.720;9.588;2022-12-07T16:38:37;7.80;99.90
18406;DHT22;9329;48.720;9.588;2022-12-07T16:41:05;7.90;99.90
18406;DHT22;9329;48.720;9.588;2022-12-07T16:43:34;8.00;99.90
18406;DHT22;9329;48.720;9.588;2022-12-07T16:46:01;8.00;99.90
18406;DHT22;9329;48.720;9.588;2022-12-07T16:48:28;8.30;99.90
18406;DHT22;9329;48.720;9.588;2022-12-07T16:50:56;8.30;99.90
18406;DHT22;9329;48.720;9.588;2022-12-07T16:53:25;8.10;99.90
18406;DHT22;9329;48.720;9.588;2022-12-07T16:55:52;8.00;99.90
18406;DHT22;9329;48.720;9.588;2022-12-07T16:58:20;8.30;99.90
18406;DHT22;9329;48.720;9.588;2022-12-07T17:00:48;8.20;99.90